Time;durP1;ratioP1;P1;durP2;ratioP2;P2;SDS_P1;SDS_P2;PMS_P1;PMS_P2;Temp;Humidity;BMP_temperature;BMP_pressure;BME280_temperature;BME280_humidity;BME280_pressure;Samples;Min_cycle;Max_cycle;Signal;HPM_P1;HPM_P2
2022/03/28 17:24:09;;;;;;;13.00;4.63;;;17.50;97.30;;;;;;5628586;24;20482;-71
2022/03/28 17:26:38;;;;;;;9.70;4.47;;;17.30;97.60;;;;;;4808020;29;20210;-72
2022/03/28 17:29:08;;;;;;;12.87;5.40;;;17.40;97.50;;;;;;4805408;29;20341;-72
2022/03/28 17:31:36;;;;;;;11.00;4.37;;;17.30;97.80;;;;;;4804928;29;20221;-72
2022/03/28 17:34:03;;;;;;;9.73;4.33;;;17.10;97.90;;;;;;4805140;29;20219;-72
2022/03/28 17:36:30;;;;;;;12.63;5.80;;;17.30;98.00;;;;;;4822947;29;20575;-74
2022/03/28 17:38:56;;;;;;;13.53;5.13;;;17.20;98.00;;;;;;4823318;29;20248;-72
2022/03/28 17:41:25;;;;;;;11.47;4.83;;;17.20;98.10;;;;;;4825644;29;20214;-71
2022/03/28 17:43:54;;;;;;;12.97;5.20;;;17.20;98.30;;;;;;4837020;29;20209;-72
2022/03/28 17:46:21;;;;;;;10.40;4.50;;;17.10;98.30;;;;;;4822134;29;20681;-71
2022/03/28 17:48:48;;;;;;;13.90;5.60;;;17.10;98.30;;;;;;4804923;29;20710;-73
2022/03/28 17:51:15;;;;;;;10.50;5.20;;;17.10;98.40;;;;;;4820266;29;20209;-71
2022/03/28 17:53:42;;;;;;;10.07;4.87;;;17.00;98.50;;;;;;4821757;29;20209;-71
2022/03/28 17:56:09;;;;;;;12.77;5.07;;;16.90;98.80;;;;;;4821110;29;20570;-71
2022/03/28 17:58:38;;;;;;;10.40;5.17;;;16.90;98.60;;;;;;4820576;29;20781;-74
2022/03/28 18:01:05;;;;;;;14.60;5.30;;;16.80;98.70;;;;;;4821474;29;20217;-74
2022/03/28 18:03:34;;;;;;;9.93;4.93;;;16.60;98.90;;;;;;4823077;29;20245;-75
2022/03/28 18:06:02;;;;;;;14.00;5.13;;;16.70;98.70;;;;;;4819287;29;20226;-73
2022/03/28 18:08:29;;;;;;;11.63;5.57;;;16.60;99.10;;;;;;4822622;29;20679;-73
2022/03/28 18:10:55;;;;;;;11.90;5.20;;;16.30;99.40;;;;;;4822092;29;20301;-74
2022/03/28 18:13:22;;;;;;;11.53;4.97;;;16.20;99.70;;;;;;4822326;29;20210;-74
2022/03/28 18:15:50;;;;;;;14.17;4.97;;;16.30;99.40;;;;;;4822309;29;20578;-71
2022/03/28 18:18:17;;;;;;;10.97;5.40;;;16.10;99.70;;;;;;4822482;29;20229;-77
2022/03/28 18:20:44;;;;;;;9.77;4.50;;;16.00;99.90;;;;;;4824273;29;20209;-73
2022/03/28 18:23:11;;;;;;;13.13;5.97;;;16.00;99.90;;;;;;4822811;29;20704;-73
2022/03/28 18:25:38;;;;;;;12.67;5.57;;;16.10;99.60;;;;;;4817746;29;20221;-74
2022/03/28 18:28:05;;;;;;;16.10;5.43;;;16.10;99.80;;;;;;4818205;29;20229;-73
2022/03/28 18:30:32;;;;;;;12.87;5.20;;;16.00;99.90;;;;;;4815567;29;20677;-73
2022/03/28 18:33:00;;;;;;;12.67;5.43;;;15.80;99.90;;;;;;4813003;29;20210;-73
2022/03/28 18:35:27;;;;;;;13.20;5.27;;;15.60;99.90;;;;;;4819580;29;20209;-73
2022/03/28 18:37:54;;;;;;;10.20;4.93;;;15.50;99.90;;;;;;4811334;29;20229;-73
2022/03/28 18:40:21;;;;;;;12.80;5.60;;;15.30;99.90;;;;;;4818689;29;20300;-73
2022/03/28 18:42:48;;;;;;;9.80;4.70;;;15.20;99.90;;;;;;4818909;29;20214;-73
2022/03/28 18:45:15;;;;;;;11.17;4.83;;;15.10;99.90;;;;;;4823360;29;20211;-72
2022/03/28 18:47:42;;;;;;;12.57;5.10;;;15.00;99.90;;;;;;4810569;29;20714;-73
2022/03/28 18:50:12;;;;;;;13.30;5.27;;;15.00;99.90;;;;;;4821273;29;20267;-73
2022/03/28 18:52:39;;;;;;;9.57;5.17;;;14.90;99.90;;;;;;4817213;29;20249;-73
2022/03/28 18:55:09;;;;;;;11.63;5.60;;;15.00;99.90;;;;;;4822428;29;20214;-72
2022/03/28 18:57:37;;;;;;;13.80;4.80;;;15.00;99.90;;;;;;4816807;29;20238;-73
2022/03/28 19:00:05;;;;;;;9.80;5.30;;;14.90;99.90;;;;;;4816827;29;20232;-73
2022/03/28 19:02:31;;;;;;;13.27;5.10;;;14.80;99.90;;;;;;4823571;29;20245;-73
2022/03/28 19:04:58;;;;;;;11.93;5.70;;;14.90;99.90;;;;;;4817378;29;20215;-73
2022/03/28 19:07:29;;;;;;;11.80;5.87;;;14.90;99.90;;;;;;4814660;29;20213;-73
2022/03/28 19:09:56;;;;;;;9.80;4.80;;;14.80;99.90;;;;;;4814441;29;20287;-73
2022/03/28 19:12:23;;;;;;;10.83;4.57;;;14.70;99.90;;;;;;4812841;29;20655;-73
2022/03/28 19:14:50;;;;;;;12.33;4.80;;;14.60;99.90;;;;;;4812348;29;20257;-73
2022/03/28 19:17:18;;;;;;;13.93;5.67;;;14.50;99.90;;;;;;4815769;29;20222;-73
2022/03/28 19:19:45;;;;;;;12.90;6.47;;;14.50;99.90;;;;;;4818072;29;20217;-73
2022/03/28 19:22:12;;;;;;;12.50;5.43;;;14.30;99.90;;;;;;4813188;29;20241;-72
2022/03/28 19:24:41;;;;;;;12.07;4.60;;;14.30;99.90;;;;;;4819711;29;20248;-73
2022/03/28 19:27:10;;;;;;;14.23;6.13;;;14.20;99.90;;;;;;4813168;29;20206;-73
2022/03/28 19:29:38;;;;;;;18.43;5.30;;;14.10;99.90;;;;;;4811650;29;20249;-73
2022/03/28 19:32:05;;;;;;;11.33;5.57;;;14.10;99.90;;;;;;4810209;29;20211;-73
2022/03/28 19:34:32;;;;;;;10.83;5.47;;;14.00;99.90;;;;;;4818411;29;20243;-74
2022/03/28 19:37:00;;;;;;;15.90;4.80;;;14.00;99.90;;;;;;4812590;29;20352;-73
2022/03/28 19:39:27;;;;;;;9.80;4.97;;;13.80;99.90;;;;;;4812477;29;20242;-73
2022/03/28 19:41:55;;;;;;;13.10;5.07;;;13.80;99.90;;;;;;4818542;29;20273;-73
2022/03/28 19:44:22;;;;;;;9.43;5.03;;;13.80;99.90;;;;;;4817389;29;20946;-73
2022/03/28 19:46:50;;;;;;;15.30;5.53;;;13.80;99.90;;;;;;4812705;29;20309;-73
2022/03/28 19:49:17;;;;;;;11.07;5.10;;;13.70;99.90;;;;;;4821513;29;20246;-73
2022/03/28 19:51:44;;;;;;;11.10;5.03;;;13.70;99.90;;;;;;4818392;29;20221;-73
2022/03/28 19:54:11;;;;;;;14.80;5.63;;;13.50;99.90;;;;;;4823988;29;20213;-73
2022/03/28 19:56:38;;;;;;;10.63;5.77;;;13.40;99.90;;;;;;4815504;29;20217;-73
2022/03/28 19:59:08;;;;;;;12.27;5.47;;;13.40;99.90;;;;;;4819944;29;20240;-73
2022/03/28 20:01:36;;;;;;;11.33;5.60;;;13.30;99.90;;;;;;4812882;29;20210;-73
2022/03/28 20:04:04;;;;;;;10.33;5.73;;;13.20;99.90;;;;;;4819882;29;20225;-73
2022/03/28 20:06:31;;;;;;;12.60;4.93;;;13.30;99.90;;;;;;4811617;29;20205;-73
2022/03/28 20:08:58;;;;;;;13.93;5.43;;;13.40;99.90;;;;;;4815688;29;20238;-73
2022/03/28 20:11:25;;;;;;;11.57;5.70;;;13.40;99.90;;;;;;4811865;29;20224;-73
2022/03/28 20:13:52;;;;;;;11.57;5.37;;;13.40;99.90;;;;;;4816742;29;20761;-72
2022/03/28 20:16:21;;;;;;;9.93;5.30;;;13.30;99.90;;;;;;4818137;29;20301;-73
2022/03/28 20:18:48;;;;;;;12.60;5.30;;;13.30;99.90;;;;;;4808787;29;20232;-73
2022/03/28 20:21:15;;;;;;;12.07;5.67;;;13.30;99.90;;;;;;4818141;29;20227;-73
2022/03/28 20:23:42;;;;;;;12.43;5.63;;;13.20;99.90;;;;;;4820062;29;20225;-73
2022/03/28 20:26:09;;;;;;;10.37;4.80;;;13.20;99.90;;;;;;4819101;29;20220;-73
2022/03/28 20:28:36;;;;;;;10.20;5.07;;;13.10;99.90;;;;;;4808785;29;20237;-73
2022/03/28 20:31:04;;;;;;;13.17;5.50;;;13.20;99.90;;;;;;4814856;29;20245;-73
2022/03/28 20:33:33;;;;;;;12.00;5.20;;;13.00;99.90;;;;;;4812212;29;20214;-73
2022/03/28 20:36:00;;;;;;;10.83;5.27;;;13.00;99.90;;;;;;4818520;29;20212;-73
2022/03/28 20:38:27;;;;;;;11.03;4.77;;;13.00;99.90;;;;;;4811246;29;20234;-73
2022/03/28 20:40:54;;;;;;;15.13;5.23;;;12.90;99.90;;;;;;4816329;29;20222;-73
2022/03/28 20:43:22;;;;;;;12.50;5.67;;;12.80;99.90;;;;;;4816299;29;20742;-73
2022/03/28 20:45:50;;;;;;;13.20;4.87;;;12.70;99.90;;;;;;4822748;29;20221;-72
2022/03/28 20:48:17;;;;;;;10.87;5.00;;;12.80;99.90;;;;;;4822253;29;20257;-73
2022/03/28 20:50:46;;;;;;;10.80;5.03;;;12.80;99.90;;;;;;4824207;29;20248;-72
2022/03/28 20:53:13;;;;;;;9.77;4.70;;;12.80;99.90;;;;;;4823501;29;20218;-73
2022/03/28 20:55:40;;;;;;;14.43;5.23;;;12.70;99.90;;;;;;4823241;29;20256;-72
2022/03/28 20:58:08;;;;;;;10.53;5.30;;;12.70;99.90;;;;;;4823335;29;20240;-73
2022/03/28 21:00:35;;;;;;;10.83;5.07;;;12.70;99.90;;;;;;4824187;29;20209;-73
2022/03/28 21:03:03;;;;;;;13.27;5.67;;;12.70;99.90;;;;;;4823558;29;20677;-73
2022/03/28 21:05:30;;;;;;;11.50;5.47;;;12.60;99.90;;;;;;4823867;29;20654;-73
2022/03/28 21:07:58;;;;;;;12.43;5.17;;;12.60;99.90;;;;;;4824860;29;20601;-73
2022/03/28 21:10:25;;;;;;;11.90;5.27;;;12.50;99.90;;;;;;4826168;29;20240;-73
2022/03/28 21:12:53;;;;;;;10.10;5.37;;;12.50;99.90;;;;;;4817010;29;20217;-73
2022/03/28 21:15:20;;;;;;;9.37;5.27;;;12.60;99.90;;;;;;4805567;29;20217;-73
2022/03/28 21:17:47;;;;;;;13.97;5.60;;;12.60;99.90;;;;;;4813241;29;20294;-73
2022/03/28 21:20:15;;;;;;;14.10;5.40;;;12.60;99.90;;;;;;4823474;29;20217;-73
2022/03/28 21:22:42;;;;;;;10.20;4.77;;;12.50;99.90;;;;;;4823149;29;20604;-73
2022/03/28 21:25:11;;;;;;;9.97;4.67;;;12.40;99.90;;;;;;4823419;29;20228;-73
2022/03/28 21:27:39;;;;;;;13.23;5.37;;;12.40;99.90;;;;;;4823178;29;20234;-73
2022/03/28 21:30:07;;;;;;;16.50;6.00;;;12.40;99.90;;;;;;4814141;29;20238;-73
2022/03/28 21:32:35;;;;;;;12.00;5.23;;;12.30;99.90;;;;;;4805211;29;20214;-72
2022/03/28 21:35:02;;;;;;;14.67;5.33;;;12.30;99.90;;;;;;4815675;29;20210;-73
2022/03/28 21:37:28;;;;;;;10.60;5.23;;;12.30;99.90;;;;;;4823099;29;20210;-73
2022/03/28 21:39:56;;;;;;;12.03;5.63;;;12.30;99.90;;;;;;4822918;29;20213;-73
2022/03/28 21:42:24;;;;;;;9.57;4.93;;;12.20;99.90;;;;;;4823042;29;20217;-73
2022/03/28 21:44:51;;;;;;;9.43;5.07;;;12.20;99.90;;;;;;4822374;29;20317;-73
2022/03/28 21:47:19;;;;;;;13.63;5.53;;;12.10;99.90;;;;;;4822854;29;20214;-73
2022/03/28 21:49:45;;;;;;;13.07;5.40;;;12.10;99.90;;;;;;4822782;29;20237;-73
2022/03/28 21:52:12;;;;;;;13.90;5.97;;;12.00;99.90;;;;;;4821903;29;20224;-73
2022/03/28 21:54:39;;;;;;;12.73;5.37;;;12.00;99.90;;;;;;4823241;29;20216;-73
2022/03/28 21:57:07;;;;;;;11.80;5.40;;;12.00;99.90;;;;;;4823166;29;20216;-73
2022/03/28 21:59:35;;;;;;;12.30;5.73;;;12.00;99.90;;;;;;4825381;29;20237;-73
2022/03/28 22:02:02;;;;;;;14.43;5.97;;;11.90;99.90;;;;;;4825258;29;20209;-73
2022/03/28 22:04:29;;;;;;;13.43;5.93;;;12.00;99.90;;;;;;4824328;29;20751;-73
2022/03/28 22:06:56;;;;;;;10.77;6.00;;;12.10;99.90;;;;;;4823024;29;20293;-73
2022/03/28 22:09:24;;;;;;;14.73;6.10;;;12.10;99.90;;;;;;4824931;29;20244;-73
2022/03/28 22:11:51;;;;;;;10.80;5.03;;;12.10;99.90;;;;;;4824753;29;20206;-73
2022/03/28 22:14:19;;;;;;;11.97;5.13;;;12.10;99.90;;;;;;4825527;29;20293;-73
2022/03/28 22:16:47;;;;;;;16.53;6.80;;;12.10;99.90;;;;;;4825379;29;20244;-73
2022/03/28 22:19:14;;;;;;;11.17;5.40;;;11.90;99.90;;;;;;4824802;29;20232;-73
2022/03/28 22:21:41;;;;;;;13.60;6.23;;;11.80;99.90;;;;;;4822872;29;20213;-73
2022/03/28 22:24:08;;;;;;;11.20;5.40;;;11.90;99.90;;;;;;4825005;29;20224;-73
2022/03/28 22:26:36;;;;;;;12.83;5.30;;;11.90;99.90;;;;;;4808044;29;20214;-73
2022/03/28 22:29:03;;;;;;;10.97;5.53;;;11.90;99.90;;;;;;4808307;29;20269;-73
2022/03/28 22:31:30;;;;;;;11.17;5.60;;;11.90;99.90;;;;;;4808250;29;20242;-73
2022/03/28 22:33:58;;;;;;;11.73;5.67;;;11.90;99.90;;;;;;4808248;29;20552;-73
2022/03/28 22:36:25;;;;;;;11.27;4.93;;;11.90;99.90;;;;;;4808266;29;20220;-73
2022/03/28 22:38:52;;;;;;;11.73;5.73;;;11.90;99.90;;;;;;4807687;29;20242;-73
2022/03/28 22:41:18;;;;;;;12.23;5.53;;;11.80;99.90;;;;;;4810998;29;20679;-73
2022/03/28 22:43:45;;;;;;;11.73;5.70;;;11.80;99.90;;;;;;4807997;29;20210;-73
2022/03/28 22:46:13;;;;;;;11.73;5.57;;;11.80;99.90;;;;;;4808180;29;20214;-73
2022/03/28 22:48:40;;;;;;;11.37;5.43;;;11.80;99.90;;;;;;4807954;29;20610;-73
2022/03/28 22:51:08;;;;;;;13.40;5.80;;;11.80;99.90;;;;;;4807624;29;20717;-73
2022/03/28 22:53:34;;;;;;;13.23;5.43;;;11.80;99.90;;;;;;4807955;29;20218;-73
2022/03/28 22:56:01;;;;;;;13.13;5.63;;;11.70;99.90;;;;;;4807977;29;20214;-72
2022/03/28 22:58:28;;;;;;;11.63;5.43;;;11.70;99.90;;;;;;4807323;29;20257;-73
2022/03/28 23:00:55;;;;;;;11.83;5.47;;;11.70;99.90;;;;;;4807476;29;20667;-73
2022/03/28 23:03:22;;;;;;;9.70;5.37;;;11.70;99.90;;;;;;4807909;29;20218;-73
2022/03/28 23:05:49;;;;;;;13.73;5.43;;;11.80;99.90;;;;;;4807852;29;20214;-72
2022/03/28 23:08:17;;;;;;;14.40;5.37;;;11.80;99.90;;;;;;4807396;29;20715;-73
2022/03/28 23:10:44;;;;;;;12.37;5.30;;;11.80;99.90;;;;;;4806764;29;20244;-73
2022/03/28 23:13:11;;;;;;;11.17;5.27;;;11.80;99.90;;;;;;4807539;29;20221;-73
2022/03/28 23:15:38;;;;;;;9.80;4.77;;;11.80;99.90;;;;;;4807565;29;20214;-73
2022/03/28 23:18:05;;;;;;;12.00;5.70;;;11.70;99.90;;;;;;4807695;29;20711;-73
2022/03/28 23:20:32;;;;;;;11.97;5.27;;;11.70;99.90;;;;;;4807451;29;20214;-73
2022/03/28 23:22:59;;;;;;;10.93;5.30;;;11.80;99.90;;;;;;4806530;29;20229;-73
2022/03/28 23:25:28;;;;;;;12.40;5.07;;;11.80;99.90;;;;;;4806988;29;20564;-73
2022/03/28 23:27:54;;;;;;;11.60;5.30;;;11.70;99.90;;;;;;4807305;29;20245;-73
